Portada
METAR-TAF:

METAR-TAF

Aeropuertos :

Starkville, Misisipi, Estados Unidos

latitud: 33-25-59N, longitud: 088-50-55W, altitud: 101 m

Observación

El informe se hizo hace 21 minutos, a las 19:15 UTC
Viento 6 kt del oeste
Temperatura 12°C
Humedad 71%
Presión 1016 hPa
Visibilidad: 16.1 km
Cielo nuboso a una altura de 2100 ft

METAR: KSTF 271915Z AUTO 27006KT 10SM BKN021 12/07 A3001 RMK AO2

Hora: 13:36 (19:36 UTC)


TAF: falta

Observaciones y pronósticos meteorológicos de más de 4000 aeropuertos (mensajes METAR y TAF).

Los puntos amarillos y rojos representan las estaciones disponibles.

Ponga el ratón en el punto deseado para ver el nombre de la estación.

Haga clic para ver las observaciones y los pronósticos meteorológicos.

Para cambiar el mapa : haga clic en los botones verdes con una cruz de color negro para hacer un zoom, en el botón verde con un guión para alejar o en las flechas verdes para mapas adyacentes.


METAR-TAF: